sensor_id;sensor_type;location;lat;lon;timestamp;P1;durP1;ratioP1;P2;durP2;ratioP2
74707;SDS011;63360;50.104;8.074;2022-11-20T00:01:19;33.70;;;10.73;;
74707;SDS011;63360;50.104;8.074;2022-11-20T00:03:47;30.10;;;9.63;;
74707;SDS011;63360;50.104;8.074;2022-11-20T00:06:15;31.25;;;9.98;;
74707;SDS011;63360;50.104;8.074;2022-11-20T00:08:43;35.67;;;10.35;;
74707;SDS011;63360;50.104;8.074;2022-11-20T00:11:17;33.25;;;9.40;;
74707;SDS011;63360;50.104;8.074;2022-11-20T00:13:48;35.30;;;10.10;;
74707;SDS011;63360;50.104;8.074;2022-11-20T00:16:17;29.73;;;9.32;;
74707;SDS011;63360;50.104;8.074;2022-11-20T00:18:45;27.90;;;8.95;;
74707;SDS011;63360;50.104;8.074;2022-11-20T00:23:40;28.50;;;8.80;;
74707;SDS011;63360;50.104;8.074;2022-11-20T00:26:08;32.67;;;9.10;;
74707;SDS011;63360;50.104;8.074;2022-11-20T00:28:37;30.77;;;9.50;;
74707;SDS011;63360;50.104;8.074;2022-11-20T00:31:09;29.75;;;8.90;;
74707;SDS011;63360;50.104;8.074;2022-11-20T00:33:38;25.65;;;8.25;;
74707;SDS011;63360;50.104;8.074;2022-11-20T00:36:05;25.90;;;7.63;;
74707;SDS011;63360;50.104;8.074;2022-11-20T00:38:34;24.80;;;8.23;;
74707;SDS011;63360;50.104;8.074;2022-11-20T00:41:03;23.05;;;7.35;;
74707;SDS011;63360;50.104;8.074;2022-11-20T00:43:31;22.83;;;8.02;;
74707;SDS011;63360;50.104;8.074;2022-11-20T00:45:58;22.80;;;7.72;;
74707;SDS011;63360;50.104;8.074;2022-11-20T00:48:24;22.15;;;7.75;;
74707;SDS011;63360;50.104;8.074;2022-11-20T00:50:51;23.40;;;7.47;;
74707;SDS011;63360;50.104;8.074;2022-11-20T00:53:18;19.90;;;7.00;;
74707;SDS011;63360;50.104;8.074;2022-11-20T00:58:32;20.38;;;7.18;;
74707;SDS011;63360;50.104;8.074;2022-11-20T01:01:22;19.20;;;6.47;;
74707;SDS011;63360;50.104;8.074;2022-11-20T01:03:51;21.67;;;7.50;;
74707;SDS011;63360;50.104;8.074;2022-11-20T01:06:20;21.50;;;7.25;;
74707;SDS011;63360;50.104;8.074;2022-11-20T01:08:49;21.05;;;7.82;;
74707;SDS011;63360;50.104;8.074;2022-11-20T01:11:21;22.50;;;6.90;;
74707;SDS011;63360;50.104;8.074;2022-11-20T01:13:50;20.67;;;7.07;;
74707;SDS011;63360;50.104;8.074;2022-11-20T01:18:44;22.00;;;7.55;;
74707;SDS011;63360;50.104;8.074;2022-11-20T01:21:13;19.63;;;6.63;;
74707;SDS011;63360;50.104;8.074;2022-11-20T01:23:45;21.90;;;7.43;;
74707;SDS011;63360;50.104;8.074;2022-11-20T01:26:13;20.10;;;6.60;;
74707;SDS011;63360;50.104;8.074;2022-11-20T01:28:41;21.57;;;6.77;;
74707;SDS011;63360;50.104;8.074;2022-11-20T01:33:39;24.10;;;6.60;;
74707;SDS011;63360;50.104;8.074;2022-11-20T01:36:07;18.77;;;6.18;;
74707;SDS011;63360;50.104;8.074;2022-11-20T01:38:35;19.33;;;6.65;;
74707;SDS011;63360;50.104;8.074;2022-11-20T01:41:02;19.60;;;6.30;;
74707;SDS011;63360;50.104;8.074;2022-11-20T01:43:28;17.58;;;6.72;;
74707;SDS011;63360;50.104;8.074;2022-11-20T01:48:28;17.25;;;6.30;;
74707;SDS011;63360;50.104;8.074;2022-11-20T01:50:59;18.70;;;6.72;;
74707;SDS011;63360;50.104;8.074;2022-11-20T01:53:30;17.00;;;6.33;;
74707;SDS011;63360;50.104;8.074;2022-11-20T01:56:00;19.13;;;6.43;;
74707;SDS011;63360;50.104;8.074;2022-11-20T01:58:31;17.17;;;5.32;;
74707;SDS011;63360;50.104;8.074;2022-11-20T02:01:02;19.17;;;6.85;;
74707;SDS011;63360;50.104;8.074;2022-11-20T02:03:29;21.08;;;7.18;;
74707;SDS011;63360;50.104;8.074;2022-11-20T02:06:04;18.87;;;6.50;;
74707;SDS011;63360;50.104;8.074;2022-11-20T02:08:36;17.60;;;6.72;;
74707;SDS011;63360;50.104;8.074;2022-11-20T02:11:03;17.58;;;6.82;;
74707;SDS011;63360;50.104;8.074;2022-11-20T02:13:30;22.52;;;7.45;;
74707;SDS011;63360;50.104;8.074;2022-11-20T02:16:15;21.00;;;7.30;;
74707;SDS011;63360;50.104;8.074;2022-11-20T02:18:45;18.97;;;7.43;;
74707;SDS011;63360;50.104;8.074;2022-11-20T02:21:24;24.52;;;8.98;;
74707;SDS011;63360;50.104;8.074;2022-11-20T02:24:01;20.08;;;7.88;;
74707;SDS011;63360;50.104;8.074;2022-11-20T02:26:35;19.02;;;6.75;;
74707;SDS011;63360;50.104;8.074;2022-11-20T02:29:06;19.35;;;6.53;;
74707;SDS011;63360;50.104;8.074;2022-11-20T02:31:40;19.23;;;6.97;;
74707;SDS011;63360;50.104;8.074;2022-11-20T02:34:08;18.20;;;6.50;;
74707;SDS011;63360;50.104;8.074;2022-11-20T02:36:35;20.00;;;6.95;;
74707;SDS011;63360;50.104;8.074;2022-11-20T02:39:04;20.27;;;7.20;;
74707;SDS011;63360;50.104;8.074;2022-11-20T02:41:32;17.33;;;6.32;;
74707;SDS011;63360;50.104;8.074;2022-11-20T02:44:00;19.03;;;5.97;;
74707;SDS011;63360;50.104;8.074;2022-11-20T02:46:27;17.80;;;6.50;;
74707;SDS011;63360;50.104;8.074;2022-11-20T02:48:54;18.50;;;6.38;;
74707;SDS011;63360;50.104;8.074;2022-11-20T02:51:21;20.85;;;7.28;;
74707;SDS011;63360;50.104;8.074;2022-11-20T02:53:47;20.33;;;7.07;;
74707;SDS011;63360;50.104;8.074;2022-11-20T02:56:14;19.50;;;6.33;;
74707;SDS011;63360;50.104;8.074;2022-11-20T02:58:41;18.05;;;6.50;;
74707;SDS011;63360;50.104;8.074;2022-11-20T03:01:07;20.02;;;6.57;;
74707;SDS011;63360;50.104;8.074;2022-11-20T03:03:34;17.95;;;6.70;;
74707;SDS011;63360;50.104;8.074;2022-11-20T03:06:01;18.63;;;7.10;;
74707;SDS011;63360;50.104;8.074;2022-11-20T03:08:27;18.97;;;7.13;;
74707;SDS011;63360;50.104;8.074;2022-11-20T03:10:54;20.02;;;6.68;;
74707;SDS011;63360;50.104;8.074;2022-11-20T03:13:20;17.73;;;6.75;;
74707;SDS011;63360;50.104;8.074;2022-11-20T03:15:47;19.77;;;6.75;;
74707;SDS011;63360;50.104;8.074;2022-11-20T03:18:13;19.90;;;7.32;;
74707;SDS011;63360;50.104;8.074;2022-11-20T03:20:40;19.50;;;6.60;;
74707;SDS011;63360;50.104;8.074;2022-11-20T03:23:07;17.77;;;6.53;;
74707;SDS011;63360;50.104;8.074;2022-11-20T03:25:33;18.83;;;6.88;;
74707;SDS011;63360;50.104;8.074;2022-11-20T03:27:59;18.40;;;6.22;;
74707;SDS011;63360;50.104;8.074;2022-11-20T03:30:26;18.33;;;6.30;;
74707;SDS011;63360;50.104;8.074;2022-11-20T03:32:56;20.23;;;6.30;;
74707;SDS011;63360;50.104;8.074;2022-11-20T03:35:22;22.58;;;7.63;;
74707;SDS011;63360;50.104;8.074;2022-11-20T03:37:48;20.60;;;7.30;;
74707;SDS011;63360;50.104;8.074;2022-11-20T03:40:15;18.48;;;7.05;;
74707;SDS011;63360;50.104;8.074;2022-11-20T03:42:41;22.33;;;7.22;;
74707;SDS011;63360;50.104;8.074;2022-11-20T03:45:12;21.57;;;7.13;;
74707;SDS011;63360;50.104;8.074;2022-11-20T03:47:43;22.42;;;7.15;;
74707;SDS011;63360;50.104;8.074;2022-11-20T03:50:10;20.02;;;7.10;;
74707;SDS011;63360;50.104;8.074;2022-11-20T03:52:41;20.25;;;7.32;;
74707;SDS011;63360;50.104;8.074;2022-11-20T03:55:08;20.52;;;6.82;;
74707;SDS011;63360;50.104;8.074;2022-11-20T03:57:34;21.77;;;7.33;;
74707;SDS011;63360;50.104;8.074;2022-11-20T04:00:00;20.15;;;7.43;;
74707;SDS011;63360;50.104;8.074;2022-11-20T04:02:27;25.40;;;8.00;;
74707;SDS011;63360;50.104;8.074;2022-11-20T04:04:54;23.67;;;7.47;;
74707;SDS011;63360;50.104;8.074;2022-11-20T04:07:20;22.13;;;7.68;;
74707;SDS011;63360;50.104;8.074;2022-11-20T04:09:47;24.30;;;6.90;;
74707;SDS011;63360;50.104;8.074;2022-11-20T04:12:14;22.33;;;6.93;;
74707;SDS011;63360;50.104;8.074;2022-11-20T04:14:40;36.33;;;7.38;;
74707;SDS011;63360;50.104;8.074;2022-11-20T04:17:06;24.23;;;6.43;;
74707;SDS011;63360;50.104;8.074;2022-11-20T04:19:33;36.72;;;6.88;;
74707;SDS011;63360;50.104;8.074;2022-11-20T04:21:59;18.70;;;6.17;;
74707;SDS011;63360;50.104;8.074;2022-11-20T04:24:26;22.70;;;6.78;;
74707;SDS011;63360;50.104;8.074;2022-11-20T04:26:52;24.20;;;6.43;;
74707;SDS011;63360;50.104;8.074;2022-11-20T04:29:19;26.83;;;7.40;;
74707;SDS011;63360;50.104;8.074;2022-11-20T04:31:46;22.15;;;6.82;;
74707;SDS011;63360;50.104;8.074;2022-11-20T04:34:12;23.20;;;7.10;;
74707;SDS011;63360;50.104;8.074;2022-11-20T04:36:39;26.27;;;7.70;;
74707;SDS011;63360;50.104;8.074;2022-11-20T04:39:05;27.33;;;7.13;;
74707;SDS011;63360;50.104;8.074;2022-11-20T04:41:33;23.60;;;6.65;;
74707;SDS011;63360;50.104;8.074;2022-11-20T04:44:01;29.23;;;7.40;;
74707;SDS011;63360;50.104;8.074;2022-11-20T04:46:30;23.13;;;7.57;;
74707;SDS011;63360;50.104;8.074;2022-11-20T04:48:59;18.88;;;6.13;;
74707;SDS011;63360;50.104;8.074;2022-11-20T04:51:26;26.63;;;6.70;;
74707;SDS011;63360;50.104;8.074;2022-11-20T04:53:53;26.50;;;6.68;;
74707;SDS011;63360;50.104;8.074;2022-11-20T04:56:19;45.47;;;7.20;;
74707;SDS011;63360;50.104;8.074;2022-11-20T04:58:46;28.37;;;7.00;;
74707;SDS011;63360;50.104;8.074;2022-11-20T05:01:16;24.13;;;6.55;;
74707;SDS011;63360;50.104;8.074;2022-11-20T05:03:44;24.50;;;6.13;;
74707;SDS011;63360;50.104;8.074;2022-11-20T05:06:12;41.65;;;6.82;;
74707;SDS011;63360;50.104;8.074;2022-11-20T05:08:40;37.40;;;6.97;;
74707;SDS011;63360;50.104;8.074;2022-11-20T05:11:07;31.53;;;6.73;;
74707;SDS011;63360;50.104;8.074;2022-11-20T05:13:39;29.63;;;6.75;;
74707;SDS011;63360;50.104;8.074;2022-11-20T05:16:13;17.48;;;6.00;;
74707;SDS011;63360;50.104;8.074;2022-11-20T05:18:42;35.30;;;6.18;;
74707;SDS011;63360;50.104;8.074;2022-11-20T05:21:09;43.63;;;6.82;;
74707;SDS011;63360;50.104;8.074;2022-11-20T05:23:36;44.73;;;7.10;;
74707;SDS011;63360;50.104;8.074;2022-11-20T05:26:04;60.22;;;7.40;;
74707;SDS011;63360;50.104;8.074;2022-11-20T05:28:32;196.13;;;10.13;;
74707;SDS011;63360;50.104;8.074;2022-11-20T05:33:33;56.83;;;7.30;;
74707;SDS011;63360;50.104;8.074;2022-11-20T05:36:00;94.57;;;8.10;;
74707;SDS011;63360;50.104;8.074;2022-11-20T05:38:27;57.72;;;7.43;;
74707;SDS011;63360;50.104;8.074;2022-11-20T05:40:54;74.78;;;7.57;;
74707;SDS011;63360;50.104;8.074;2022-11-20T05:43:20;59.15;;;7.53;;
74707;SDS011;63360;50.104;8.074;2022-11-20T05:45:53;26.45;;;6.32;;
74707;SDS011;63360;50.104;8.074;2022-11-20T05:48:20;44.97;;;6.77;;
74707;SDS011;63360;50.104;8.074;2022-11-20T05:50:47;50.58;;;6.68;;
74707;SDS011;63360;50.104;8.074;2022-11-20T05:53:14;38.50;;;6.70;;
74707;SDS011;63360;50.104;8.074;2022-11-20T05:55:40;57.92;;;7.80;;
74707;SDS011;63360;50.104;8.074;2022-11-20T05:58:06;48.15;;;7.63;;
74707;SDS011;63360;50.104;8.074;2022-11-20T06:00:33;29.57;;;6.47;;
74707;SDS011;63360;50.104;8.074;2022-11-20T06:02:59;39.20;;;7.40;;
74707;SDS011;63360;50.104;8.074;2022-11-20T06:05:26;31.38;;;6.90;;
74707;SDS011;63360;50.104;8.074;2022-11-20T06:07:52;21.83;;;6.30;;
74707;SDS011;63360;50.104;8.074;2022-11-20T06:10:18;22.35;;;5.95;;
74707;SDS011;63360;50.104;8.074;2022-11-20T06:12:45;27.30;;;6.70;;
74707;SDS011;63360;50.104;8.074;2022-11-20T06:15:11;16.77;;;5.85;;
74707;SDS011;63360;50.104;8.074;2022-11-20T06:17:37;21.92;;;5.82;;
74707;SDS011;63360;50.104;8.074;2022-11-20T06:20:04;33.40;;;5.75;;
74707;SDS011;63360;50.104;8.074;2022-11-20T06:22:31;26.58;;;6.05;;
74707;SDS011;63360;50.104;8.074;2022-11-20T06:24:58;23.07;;;6.07;;
74707;SDS011;63360;50.104;8.074;2022-11-20T06:27:24;25.27;;;5.85;;
74707;SDS011;63360;50.104;8.074;2022-11-20T06:29:51;31.88;;;5.97;;
74707;SDS011;63360;50.104;8.074;2022-11-20T06:32:17;38.92;;;6.30;;
74707;SDS011;63360;50.104;8.074;2022-11-20T06:34:43;14.70;;;5.10;;
74707;SDS011;63360;50.104;8.074;2022-11-20T06:37:10;15.27;;;4.80;;
74707;SDS011;63360;50.104;8.074;2022-11-20T06:39:36;23.50;;;5.90;;
74707;SDS011;63360;50.104;8.074;2022-11-20T06:42:03;21.88;;;5.38;;
74707;SDS011;63360;50.104;8.074;2022-11-20T06:44:29;20.20;;;5.85;;
74707;SDS011;63360;50.104;8.074;2022-11-20T06:46:56;19.55;;;5.65;;
74707;SDS011;63360;50.104;8.074;2022-11-20T06:49:22;18.47;;;5.80;;
74707;SDS011;63360;50.104;8.074;2022-11-20T06:51:49;18.30;;;6.40;;
74707;SDS011;63360;50.104;8.074;2022-11-20T06:54:15;20.05;;;5.72;;
74707;SDS011;63360;50.104;8.074;2022-11-20T06:56:42;18.63;;;5.40;;
74707;SDS011;63360;50.104;8.074;2022-11-20T06:59:08;14.35;;;4.88;;
74707;SDS011;63360;50.104;8.074;2022-11-20T07:01:34;15.00;;;5.03;;
74707;SDS011;63360;50.104;8.074;2022-11-20T07:04:01;13.68;;;4.30;;
74707;SDS011;63360;50.104;8.074;2022-11-20T07:06:29;16.63;;;4.85;;
74707;SDS011;63360;50.104;8.074;2022-11-20T07:08:55;14.77;;;4.32;;
74707;SDS011;63360;50.104;8.074;2022-11-20T07:11:21;17.20;;;4.47;;
74707;SDS011;63360;50.104;8.074;2022-11-20T07:13:48;15.70;;;4.93;;
74707;SDS011;63360;50.104;8.074;2022-11-20T07:16:15;14.23;;;4.60;;
74707;SDS011;63360;50.104;8.074;2022-11-20T07:18:42;14.95;;;4.40;;
74707;SDS011;63360;50.104;8.074;2022-11-20T07:21:15;14.25;;;4.93;;
74707;SDS011;63360;50.104;8.074;2022-11-20T07:23:42;12.40;;;4.38;;
74707;SDS011;63360;50.104;8.074;2022-11-20T07:26:09;13.43;;;4.33;;
74707;SDS011;63360;50.104;8.074;2022-11-20T07:28:37;16.02;;;5.00;;
74707;SDS011;63360;50.104;8.074;2022-11-20T07:31:04;17.63;;;4.88;;
74707;SDS011;63360;50.104;8.074;2022-11-20T07:33:32;15.80;;;5.00;;
74707;SDS011;63360;50.104;8.074;2022-11-20T07:35:59;19.48;;;7.22;;
74707;SDS011;63360;50.104;8.074;2022-11-20T07:38:26;19.87;;;6.37;;
74707;SDS011;63360;50.104;8.074;2022-11-20T07:40:56;15.25;;;5.70;;
74707;SDS011;63360;50.104;8.074;2022-11-20T07:43:23;15.93;;;6.03;;
74707;SDS011;63360;50.104;8.074;2022-11-20T07:45:51;13.30;;;4.88;;
74707;SDS011;63360;50.104;8.074;2022-11-20T07:48:17;16.25;;;5.75;;
74707;SDS011;63360;50.104;8.074;2022-11-20T07:50:43;14.67;;;6.07;;
74707;SDS011;63360;50.104;8.074;2022-11-20T07:53:10;13.80;;;5.05;;
74707;SDS011;63360;50.104;8.074;2022-11-20T07:55:36;12.98;;;4.72;;
74707;SDS011;63360;50.104;8.074;2022-11-20T07:58:03;13.10;;;4.55;;
74707;SDS011;63360;50.104;8.074;2022-11-20T08:00:29;11.68;;;4.78;;
74707;SDS011;63360;50.104;8.074;2022-11-20T08:02:55;13.17;;;4.97;;
74707;SDS011;63360;50.104;8.074;2022-11-20T08:05:22;14.90;;;5.18;;
74707;SDS011;63360;50.104;8.074;2022-11-20T08:07:49;10.90;;;4.32;;
74707;SDS011;63360;50.104;8.074;2022-11-20T08:10:16;11.93;;;4.30;;
74707;SDS011;63360;50.104;8.074;2022-11-20T08:12:43;13.95;;;4.63;;
74707;SDS011;63360;50.104;8.074;2022-11-20T08:15:32;12.10;;;4.20;;
74707;SDS011;63360;50.104;8.074;2022-11-20T08:18:06;12.77;;;4.25;;
74707;SDS011;63360;50.104;8.074;2022-11-20T08:20:57;17.40;;;6.32;;
74707;SDS011;63360;50.104;8.074;2022-11-20T08:23:24;12.23;;;4.25;;
74707;SDS011;63360;50.104;8.074;2022-11-20T08:25:50;11.85;;;4.20;;
74707;SDS011;63360;50.104;8.074;2022-11-20T08:28:17;12.63;;;4.43;;
74707;SDS011;63360;50.104;8.074;2022-11-20T08:30:47;12.75;;;4.38;;
74707;SDS011;63360;50.104;8.074;2022-11-20T08:33:14;11.18;;;3.60;;
74707;SDS011;63360;50.104;8.074;2022-11-20T08:35:41;10.77;;;3.67;;
74707;SDS011;63360;50.104;8.074;2022-11-20T08:38:09;10.27;;;3.90;;
74707;SDS011;63360;50.104;8.074;2022-11-20T08:40:35;11.80;;;4.20;;
74707;SDS011;63360;50.104;8.074;2022-11-20T08:43:02;10.50;;;3.58;;
74707;SDS011;63360;50.104;8.074;2022-11-20T08:45:28;12.18;;;4.32;;
74707;SDS011;63360;50.104;8.074;2022-11-20T08:48:00;13.85;;;4.22;;
74707;SDS011;63360;50.104;8.074;2022-11-20T08:50:27;12.93;;;4.00;;
74707;SDS011;63360;50.104;8.074;2022-11-20T08:52:54;13.33;;;5.07;;
74707;SDS011;63360;50.104;8.074;2022-11-20T08:55:20;15.77;;;5.25;;
74707;SDS011;63360;50.104;8.074;2022-11-20T08:57:46;15.88;;;5.43;;
74707;SDS011;63360;50.104;8.074;2022-11-20T09:00:16;11.77;;;4.30;;
74707;SDS011;63360;50.104;8.074;2022-11-20T09:02:42;14.63;;;5.50;;
74707;SDS011;63360;50.104;8.074;2022-11-20T09:05:09;12.30;;;4.20;;
74707;SDS011;63360;50.104;8.074;2022-11-20T09:07:35;13.23;;;4.55;;
74707;SDS011;63360;50.104;8.074;2022-11-20T09:10:02;13.00;;;3.97;;
74707;SDS011;63360;50.104;8.074;2022-11-20T09:12:49;13.88;;;4.70;;
74707;SDS011;63360;50.104;8.074;2022-11-20T09:15:17;13.40;;;4.07;;
74707;SDS011;63360;50.104;8.074;2022-11-20T09:17:54;15.30;;;4.63;;
74707;SDS011;63360;50.104;8.074;2022-11-20T09:20:21;13.93;;;4.25;;
74707;SDS011;63360;50.104;8.074;2022-11-20T09:22:48;14.10;;;4.65;;
74707;SDS011;63360;50.104;8.074;2022-11-20T09:25:14;13.82;;;4.85;;
74707;SDS011;63360;50.104;8.074;2022-11-20T09:27:41;21.08;;;10.85;;
74707;SDS011;63360;50.104;8.074;2022-11-20T09:30:09;21.17;;;9.33;;
74707;SDS011;63360;50.104;8.074;2022-11-20T09:32:38;13.50;;;5.65;;
74707;SDS011;63360;50.104;8.074;2022-11-20T09:35:05;14.40;;;5.30;;
74707;SDS011;63360;50.104;8.074;2022-11-20T09:37:31;13.05;;;4.78;;
74707;SDS011;63360;50.104;8.074;2022-11-20T09:39:58;14.65;;;4.60;;
74707;SDS011;63360;50.104;8.074;2022-11-20T09:42:32;13.40;;;4.27;;
74707;SDS011;63360;50.104;8.074;2022-11-20T09:45:08;11.70;;;4.18;;
74707;SDS011;63360;50.104;8.074;2022-11-20T09:47:52;13.35;;;4.43;;
74707;SDS011;63360;50.104;8.074;2022-11-20T09:50:39;14.95;;;5.40;;
74707;SDS011;63360;50.104;8.074;2022-11-20T09:53:35;22.42;;;6.63;;
74707;SDS011;63360;50.104;8.074;2022-11-20T09:56:21;18.83;;;5.87;;
74707;SDS011;63360;50.104;8.074;2022-11-20T09:58:50;19.13;;;7.35;;
74707;SDS011;63360;50.104;8.074;2022-11-20T10:01:19;18.15;;;6.40;;
74707;SDS011;63360;50.104;8.074;2022-11-20T10:03:55;15.23;;;5.10;;
74707;SDS011;63360;50.104;8.074;2022-11-20T10:06:34;15.52;;;5.07;;
74707;SDS011;63360;50.104;8.074;2022-11-20T10:09:08;15.00;;;5.27;;
74707;SDS011;63360;50.104;8.074;2022-11-20T10:17:23;14.32;;;4.35;;
74707;SDS011;63360;50.104;8.074;2022-11-20T10:31:42;12.50;;;5.22;;
74707;SDS011;63360;50.104;8.074;2022-11-20T10:36:55;15.33;;;5.93;;
74707;SDS011;63360;50.104;8.074;2022-11-20T10:39:35;17.35;;;6.13;;
74707;SDS011;63360;50.104;8.074;2022-11-20T10:42:13;15.48;;;5.97;;
74707;SDS011;63360;50.104;8.074;2022-11-20T10:44:47;17.30;;;6.20;;
74707;SDS011;63360;50.104;8.074;2022-11-20T10:47:32;15.55;;;5.82;;
74707;SDS011;63360;50.104;8.074;2022-11-20T10:50:03;15.33;;;5.10;;
74707;SDS011;63360;50.104;8.074;2022-11-20T10:58:28;11.70;;;5.28;;
74707;SDS011;63360;50.104;8.074;2022-11-20T11:01:19;15.77;;;5.40;;
74707;SDS011;63360;50.104;8.074;2022-11-20T11:03:50;13.77;;;5.33;;
74707;SDS011;63360;50.104;8.074;2022-11-20T11:08:54;13.15;;;5.38;;
74707;SDS011;63360;50.104;8.074;2022-11-20T11:11:26;13.05;;;5.40;;
74707;SDS011;63360;50.104;8.074;2022-11-20T11:14:05;13.38;;;5.35;;
74707;SDS011;63360;50.104;8.074;2022-11-20T11:16:48;13.80;;;6.33;;
74707;SDS011;63360;50.104;8.074;2022-11-20T11:19:22;14.15;;;5.50;;
74707;SDS011;63360;50.104;8.074;2022-11-20T11:21:56;15.13;;;5.97;;
74707;SDS011;63360;50.104;8.074;2022-11-20T11:24:24;14.55;;;5.80;;
74707;SDS011;63360;50.104;8.074;2022-11-20T11:27:12;13.00;;;5.07;;
74707;SDS011;63360;50.104;8.074;2022-11-20T11:29:43;12.07;;;5.47;;
74707;SDS011;63360;50.104;8.074;2022-11-20T11:32:12;12.65;;;5.28;;
74707;SDS011;63360;50.104;8.074;2022-11-20T11:34:40;13.57;;;5.32;;
74707;SDS011;63360;50.104;8.074;2022-11-20T11:37:12;12.63;;;5.43;;
74707;SDS011;63360;50.104;8.074;2022-11-20T11:39:43;14.07;;;5.38;;
74707;SDS011;63360;50.104;8.074;2022-11-20T11:42:20;13.57;;;6.23;;
74707;SDS011;63360;50.104;8.074;2022-11-20T11:44:47;14.77;;;5.80;;
74707;SDS011;63360;50.104;8.074;2022-11-20T11:47:33;13.50;;;5.45;;
74707;SDS011;63360;50.104;8.074;2022-11-20T11:50:13;12.07;;;5.32;;
74707;SDS011;63360;50.104;8.074;2022-11-20T11:55:17;11.27;;;5.07;;
74707;SDS011;63360;50.104;8.074;2022-11-20T12:00:53;13.30;;;5.65;;
74707;SDS011;63360;50.104;8.074;2022-11-20T12:03:34;12.57;;;5.50;;
74707;SDS011;63360;50.104;8.074;2022-11-20T12:06:10;12.80;;;5.63;;
74707;SDS011;63360;50.104;8.074;2022-11-20T12:11:14;28.67;;;9.88;;
74707;SDS011;63360;50.104;8.074;2022-11-20T12:14:03;16.45;;;6.10;;
74707;SDS011;63360;50.104;8.074;2022-11-20T12:16:37;19.55;;;7.35;;
74707;SDS011;63360;50.104;8.074;2022-11-20T12:19:09;19.67;;;8.27;;
74707;SDS011;63360;50.104;8.074;2022-11-20T12:21:47;16.90;;;6.70;;
74707;SDS011;63360;50.104;8.074;2022-11-20T12:24:22;16.42;;;6.78;;
74707;SDS011;63360;50.104;8.074;2022-11-20T12:30:07;15.48;;;6.03;;
74707;SDS011;63360;50.104;8.074;2022-11-20T13:07:02;17.88;;;7.15;;
74707;SDS011;63360;50.104;8.074;2022-11-20T13:09:31;13.00;;;4.90;;
74707;SDS011;63360;50.104;8.074;2022-11-20T13:14:37;12.93;;;5.18;;
74707;SDS011;63360;50.104;8.074;2022-11-20T13:17:19;15.60;;;5.83;;
74707;SDS011;63360;50.104;8.074;2022-11-20T13:19:56;15.07;;;5.90;;
74707;SDS011;63360;50.104;8.074;2022-11-20T13:22:27;12.23;;;4.60;;
74707;SDS011;63360;50.104;8.074;2022-11-20T13:24:55;15.63;;;5.55;;
74707;SDS011;63360;50.104;8.074;2022-11-20T13:27:22;16.25;;;6.03;;
74707;SDS011;63360;50.104;8.074;2022-11-20T13:30:00;15.47;;;6.00;;
74707;SDS011;63360;50.104;8.074;2022-11-20T13:35:29;15.98;;;5.75;;
74707;SDS011;63360;50.104;8.074;2022-11-20T13:38:10;18.13;;;7.07;;
74707;SDS011;63360;50.104;8.074;2022-11-20T13:40:39;18.95;;;7.72;;
74707;SDS011;63360;50.104;8.074;2022-11-20T13:43:22;11.37;;;4.53;;
74707;SDS011;63360;50.104;8.074;2022-11-20T13:46:10;12.93;;;5.18;;
74707;SDS011;63360;50.104;8.074;2022-11-20T13:48:40;12.35;;;4.40;;
74707;SDS011;63360;50.104;8.074;2022-11-20T13:53:45;13.63;;;5.25;;
74707;SDS011;63360;50.104;8.074;2022-11-20T13:56:27;10.80;;;4.10;;
74707;SDS011;63360;50.104;8.074;2022-11-20T14:01:57;8.93;;;3.28;;
74707;SDS011;63360;50.104;8.074;2022-11-20T14:04:33;16.90;;;7.65;;
74707;SDS011;63360;50.104;8.074;2022-11-20T14:07:01;19.00;;;8.27;;
74707;SDS011;63360;50.104;8.074;2022-11-20T14:09:32;19.27;;;8.13;;
74707;SDS011;63360;50.104;8.074;2022-11-20T14:12:01;18.27;;;7.93;;
74707;SDS011;63360;50.104;8.074;2022-11-20T14:14:29;19.42;;;7.82;;
74707;SDS011;63360;50.104;8.074;2022-11-20T14:19:54;17.95;;;7.22;;
74707;SDS011;63360;50.104;8.074;2022-11-20T14:22:25;16.77;;;7.23;;
74707;SDS011;63360;50.104;8.074;2022-11-20T14:25:06;17.02;;;7.32;;
74707;SDS011;63360;50.104;8.074;2022-11-20T14:27:43;15.15;;;6.68;;
74707;SDS011;63360;50.104;8.074;2022-11-20T14:30:14;14.32;;;5.80;;
74707;SDS011;63360;50.104;8.074;2022-11-20T14:32:43;11.90;;;5.07;;
74707;SDS011;63360;50.104;8.074;2022-11-20T14:35:23;9.93;;;4.80;;
74707;SDS011;63360;50.104;8.074;2022-11-20T14:37:53;16.50;;;7.13;;
74707;SDS011;63360;50.104;8.074;2022-11-20T14:40:22;19.88;;;9.85;;
74707;SDS011;63360;50.104;8.074;2022-11-20T14:42:48;15.82;;;6.68;;
74707;SDS011;63360;50.104;8.074;2022-11-20T14:45:15;16.58;;;6.90;;
74707;SDS011;63360;50.104;8.074;2022-11-20T14:47:42;13.77;;;6.00;;
74707;SDS011;63360;50.104;8.074;2022-11-20T14:50:13;16.52;;;6.82;;
74707;SDS011;63360;50.104;8.074;2022-11-20T14:52:51;16.25;;;7.78;;
74707;SDS011;63360;50.104;8.074;2022-11-20T14:58:00;19.00;;;9.18;;
74707;SDS011;63360;50.104;8.074;2022-11-20T15:00:32;18.23;;;7.93;;
74707;SDS011;63360;50.104;8.074;2022-11-20T15:03:00;17.13;;;7.72;;
74707;SDS011;63360;50.104;8.074;2022-11-20T15:05:43;15.00;;;6.40;;
74707;SDS011;63360;50.104;8.074;2022-11-20T15:08:12;14.35;;;6.13;;
74707;SDS011;63360;50.104;8.074;2022-11-20T15:10:45;15.45;;;5.65;;
74707;SDS011;63360;50.104;8.074;2022-11-20T15:13:16;11.87;;;5.20;;
74707;SDS011;63360;50.104;8.074;2022-11-20T15:15:49;11.93;;;5.20;;
74707;SDS011;63360;50.104;8.074;2022-11-20T15:18:28;10.00;;;4.57;;
74707;SDS011;63360;50.104;8.074;2022-11-20T15:20:57;11.60;;;4.95;;
74707;SDS011;63360;50.104;8.074;2022-11-20T15:23:27;8.77;;;3.63;;
74707;SDS011;63360;50.104;8.074;2022-11-20T15:25:54;9.07;;;2.97;;
74707;SDS011;63360;50.104;8.074;2022-11-20T15:30:55;12.70;;;5.20;;
74707;SDS011;63360;50.104;8.074;2022-11-20T15:33:24;12.50;;;5.47;;
74707;SDS011;63360;50.104;8.074;2022-11-20T15:35:51;13.55;;;6.00;;
74707;SDS011;63360;50.104;8.074;2022-11-20T15:38:17;14.10;;;6.37;;
74707;SDS011;63360;50.104;8.074;2022-11-20T15:40:43;14.85;;;5.65;;
74707;SDS011;63360;50.104;8.074;2022-11-20T15:43:10;16.45;;;6.15;;
74707;SDS011;63360;50.104;8.074;2022-11-20T15:45:42;12.85;;;5.35;;
74707;SDS011;63360;50.104;8.074;2022-11-20T15:48:15;14.10;;;5.82;;
74707;SDS011;63360;50.104;8.074;2022-11-20T15:50:56;14.13;;;5.77;;
74707;SDS011;63360;50.104;8.074;2022-11-20T15:53:25;14.82;;;6.15;;
74707;SDS011;63360;50.104;8.074;2022-11-20T15:55:52;11.90;;;5.20;;
74707;SDS011;63360;50.104;8.074;2022-11-20T15:58:18;11.43;;;5.78;;
74707;SDS011;63360;50.104;8.074;2022-11-20T16:00:45;13.70;;;5.82;;
74707;SDS011;63360;50.104;8.074;2022-11-20T16:03:12;15.37;;;6.83;;
74707;SDS011;63360;50.104;8.074;2022-11-20T16:05:39;20.15;;;8.57;;
74707;SDS011;63360;50.104;8.074;2022-11-20T16:08:06;12.60;;;5.32;;
74707;SDS011;63360;50.104;8.074;2022-11-20T16:10:37;14.35;;;5.60;;
74707;SDS011;63360;50.104;8.074;2022-11-20T16:13:03;13.32;;;5.53;;
74707;SDS011;63360;50.104;8.074;2022-11-20T16:15:53;8.10;;;3.97;;
74707;SDS011;63360;50.104;8.074;2022-11-20T16:18:23;9.10;;;3.33;;
74707;SDS011;63360;50.104;8.074;2022-11-20T16:20:51;9.10;;;3.22;;
74707;SDS011;63360;50.104;8.074;2022-11-20T16:23:19;9.02;;;2.38;;
74707;SDS011;63360;50.104;8.074;2022-11-20T16:25:46;6.70;;;2.20;;
74707;SDS011;63360;50.104;8.074;2022-11-20T16:28:13;4.93;;;1.83;;
74707;SDS011;63360;50.104;8.074;2022-11-20T16:30:44;6.32;;;2.40;;
74707;SDS011;63360;50.104;8.074;2022-11-20T16:33:11;7.07;;;2.63;;
74707;SDS011;63360;50.104;8.074;2022-11-20T16:35:40;7.32;;;2.83;;
74707;SDS011;63360;50.104;8.074;2022-11-20T16:38:06;9.60;;;4.38;;
74707;SDS011;63360;50.104;8.074;2022-11-20T16:40:33;12.10;;;5.77;;